createdAt,value
2022-10-23T00:00:41.091Z,32.56
2022-10-23T00:01:44.955Z,27.70
2022-10-23T00:02:53.605Z,37.50
2022-10-23T00:04:01.101Z,26.80
2022-10-23T00:05:03.186Z,26.80
2022-10-23T00:06:05.702Z,25.00
2022-10-23T00:07:07.590Z,31.30
2022-10-23T00:08:09.401Z,25.70
2022-10-23T00:09:13.845Z,25.67
2022-10-23T00:10:16.739Z,30.50
2022-10-23T00:11:22.290Z,32.90
2022-10-23T00:12:24.334Z,26.10
2022-10-23T00:13:27.411Z,27.60
2022-10-23T00:14:29.155Z,30.40
2022-10-23T00:15:30.793Z,29.78
2022-10-23T00:16:33.190Z,26.11
2022-10-23T00:17:35.317Z,31.10
2022-10-23T00:18:38.548Z,29.60
2022-10-23T00:19:41.278Z,32.90
2022-10-23T00:20:43.513Z,27.30
2022-10-23T00:21:45.729Z,30.70
2022-10-23T00:22:47.661Z,35.56
2022-10-23T00:23:50.406Z,31.80
2022-10-23T00:24:52.746Z,31.50
2022-10-23T00:25:54.640Z,25.40
2022-10-23T00:26:56.699Z,27.80
2022-10-23T00:27:59.280Z,27.70
2022-10-23T00:29:01.402Z,27.70
2022-10-23T00:30:05.315Z,27.70
2022-10-23T00:31:07.568Z,30.30
2022-10-23T00:32:09.868Z,28.50
2022-10-23T00:33:11.673Z,26.30
2022-10-23T00:34:13.345Z,28.00
2022-10-23T00:35:16.019Z,25.80
2022-10-23T00:36:19.838Z,29.80
2022-10-23T00:37:22.145Z,31.20
2022-10-23T00:38:24.161Z,26.20
2022-10-23T00:39:26.425Z,27.22
2022-10-23T00:40:28.216Z,28.60
2022-10-23T00:41:30.203Z,31.33
2022-10-23T00:42:32.081Z,27.44
2022-10-23T00:43:35.384Z,29.22
2022-10-23T00:44:40.983Z,30.50
2022-10-23T00:45:42.794Z,34.30
2022-10-23T00:46:44.963Z,32.10
2022-10-23T00:47:48.783Z,31.67
2022-10-23T00:48:51.150Z,30.00
2022-10-23T00:49:54.578Z,32.00
2022-10-23T00:50:57.770Z,31.90
2022-10-23T00:52:03.409Z,31.40
2022-10-23T00:53:05.875Z,31.80
2022-10-23T00:54:25.242Z,29.60
2022-10-23T00:55:13.755Z,30.40
2022-10-23T00:56:17.037Z,31.00
2022-10-23T00:57:20.154Z,28.36
2022-10-23T00:58:22.363Z,31.90
2022-10-23T00:59:25.490Z,32.50
2022-10-23T01:00:46.498Z,29.64
2022-10-23T01:01:48.998Z,30.90
2022-10-23T01:02:52.895Z,33.30
2022-10-23T01:03:55.025Z,31.10
2022-10-23T01:04:57.112Z,30.70
2022-10-23T01:06:19.118Z,31.00
2022-10-23T01:07:42.045Z,33.90
2022-10-23T01:08:53.973Z,31.30
2022-10-23T01:10:17.408Z,28.00
2022-10-23T01:13:18.205Z,31.20
2022-10-23T01:14:39.875Z,27.60
2022-10-23T01:15:45.839Z,31.90
2022-10-23T01:16:56.993Z,30.50
2022-10-23T01:18:05.756Z,32.30
2022-10-23T01:19:29.857Z,33.70
2022-10-23T01:20:41.601Z,32.30
2022-10-23T01:22:21.055Z,33.80
2022-10-23T01:23:49.361Z,33.50
2022-10-23T01:25:00.849Z,32.60
2022-10-23T01:26:22.115Z,34.70
2022-10-23T01:27:28.125Z,34.40
2022-10-23T01:28:33.622Z,38.80
2022-10-23T01:31:04.907Z,38.40
2022-10-23T01:32:23.838Z,30.70
2022-10-23T01:33:29.729Z,18.90
2022-10-23T01:34:38.549Z,35.10
2022-10-23T01:35:47.177Z,31.60
2022-10-23T01:36:52.028Z,33.60
2022-10-23T01:37:57.652Z,32.30
2022-10-23T01:40:10.548Z,35.40
2022-10-23T01:41:19.211Z,32.50
2022-10-23T01:42:25.261Z,36.40
2022-10-23T01:43:33.604Z,33.50
2022-10-23T01:44:51.149Z,31.60
2022-10-23T01:45:57.829Z,29.80
2022-10-23T01:47:03.077Z,35.20
2022-10-23T01:48:10.957Z,34.70
2022-10-23T01:49:15.761Z,36.30
2022-10-23T01:50:21.258Z,35.50
2022-10-23T01:51:28.977Z,31.70
2022-10-23T01:52:33.428Z,42.20
2022-10-23T01:53:40.070Z,34.50
2022-10-23T01:54:45.749Z,34.60
2022-10-23T01:55:49.806Z,38.50
2022-10-23T01:56:55.562Z,33.40
2022-10-23T01:58:02.819Z,36.30
2022-10-23T01:59:11.261Z,37.30
2022-10-23T02:00:18.257Z,37.20
2022-10-23T02:01:29.724Z,38.30
2022-10-23T02:02:34.892Z,32.60
2022-10-23T02:03:41.381Z,34.80
2022-10-23T02:05:01.852Z,35.10
2022-10-23T02:06:04.546Z,36.90
2022-10-23T02:07:06.660Z,38.40
2022-10-23T02:08:08.900Z,39.20
2022-10-23T02:09:11.229Z,33.70
2022-10-23T02:10:16.138Z,36.70
2022-10-23T02:11:21.853Z,35.60
2022-10-23T02:12:30.565Z,38.70
2022-10-23T02:13:37.639Z,37.70
2022-10-23T02:15:10.794Z,35.00
2022-10-23T02:16:25.904Z,35.80
2022-10-23T02:17:41.185Z,34.60
2022-10-23T02:18:53.355Z,38.50
2022-10-23T02:19:59.794Z,38.50
2022-10-23T02:21:14.925Z,41.30
2022-10-23T02:22:26.309Z,32.50
2022-10-23T02:23:38.119Z,36.60
2022-10-23T02:24:46.545Z,37.20
2022-10-23T02:25:52.424Z,36.50
2022-10-23T02:26:58.880Z,37.60
2022-10-23T02:28:04.477Z,36.80
2022-10-23T02:30:31.177Z,41.40
2022-10-23T02:31:34.928Z,39.10
2022-10-23T02:32:40.414Z,36.33
2022-10-23T02:33:45.333Z,34.80
2022-10-23T02:34:47.467Z,37.10
2022-10-23T02:35:49.992Z,42.20
2022-10-23T02:36:57.055Z,29.10
2022-10-23T02:38:00.909Z,38.60
2022-10-23T02:39:05.273Z,39.30
2022-10-23T02:40:10.592Z,33.80
2022-10-23T02:41:40.810Z,35.30
2022-10-23T02:42:50.004Z,35.00
2022-10-23T02:44:27.241Z,35.50
2022-10-23T02:45:33.027Z,40.10
2022-10-23T02:46:57.254Z,34.20
2022-10-23T02:48:08.791Z,35.70
2022-10-23T02:49:32.407Z,38.10
2022-10-23T02:50:57.663Z,39.90
2022-10-23T02:52:15.345Z,34.20
2022-10-23T02:53:33.285Z,39.90
2022-10-23T02:54:48.444Z,41.80
2022-10-23T02:56:10.769Z,39.30
2022-10-23T02:57:19.467Z,37.80
2022-10-23T02:58:59.377Z,37.50
2022-10-23T03:00:07.004Z,39.20
2022-10-23T03:01:12.812Z,39.90
2022-10-23T03:02:18.754Z,37.40
2022-10-23T03:03:34.517Z,39.80
2022-10-23T03:04:39.763Z,36.80
2022-10-23T03:05:43.625Z,35.30
2022-10-23T03:06:46.926Z,36.40
2022-10-23T03:07:51.756Z,40.60
2022-10-23T03:08:59.785Z,37.36
2022-10-23T03:10:02.586Z,37.20
2022-10-23T03:11:06.324Z,35.10
2022-10-23T03:12:08.278Z,42.70
2022-10-23T03:13:11.815Z,41.60
2022-10-23T03:14:15.444Z,36.80
2022-10-23T03:15:17.275Z,31.56
2022-10-23T03:16:19.145Z,35.67
2022-10-23T03:17:23.774Z,38.10
2022-10-23T03:18:27.683Z,39.10
2022-10-23T03:19:31.666Z,36.70
2022-10-23T03:20:34.169Z,30.60
2022-10-23T03:21:36.078Z,40.40
2022-10-23T03:22:39.401Z,33.40
2022-10-23T03:23:41.971Z,36.40
2022-10-23T03:24:44.013Z,41.60
2022-10-23T03:25:45.651Z,42.67
2022-10-23T03:26:49.705Z,36.80
2022-10-23T03:27:51.712Z,39.30
2022-10-23T03:28:53.886Z,34.50
2022-10-23T03:29:57.195Z,38.70
2022-10-23T03:30:59.241Z,37.30
2022-10-23T03:32:01.111Z,39.33
2022-10-23T03:33:02.944Z,34.56
2022-10-23T03:34:07.505Z,36.11
2022-10-23T03:35:09.263Z,38.36
2022-10-23T03:36:13.157Z,39.20
2022-10-23T03:37:15.162Z,32.60
2022-10-23T03:38:17.694Z,34.30
2022-10-23T03:39:19.704Z,35.80
2022-10-23T03:40:23.184Z,40.30
2022-10-23T03:41:25.160Z,37.00
2022-10-23T03:42:27.354Z,37.89
2022-10-23T03:43:30.316Z,43.50
2022-10-23T03:44:32.068Z,39.22
2022-10-23T03:45:33.697Z,36.78
2022-10-23T03:46:36.735Z,30.44
2022-10-23T03:47:39.140Z,33.70
2022-10-23T03:48:40.970Z,34.50
2022-10-23T03:49:42.893Z,38.33
2022-10-23T03:50:44.745Z,36.00
2022-10-23T03:51:46.498Z,38.89
2022-10-23T03:52:48.704Z,37.80
2022-10-23T03:53:51.631Z,38.56
2022-10-23T03:54:54.085Z,36.30
2022-10-23T03:55:56.082Z,40.60
2022-10-23T03:56:57.984Z,37.11
2022-10-23T03:58:01.674Z,30.00
2022-10-23T03:59:04.150Z,38.89
2022-10-23T04:00:08.183Z,35.50
2022-10-23T04:01:11.835Z,37.90
2022-10-23T04:02:13.825Z,21.22
2022-10-23T04:03:15.950Z,40.70
2022-10-23T04:04:18.059Z,37.00
2022-10-23T04:05:19.755Z,39.00
2022-10-23T04:06:23.761Z,42.80
2022-10-23T04:07:27.811Z,38.60
2022-10-23T04:08:31.134Z,40.70
2022-10-23T04:09:33.044Z,31.55
2022-10-23T04:10:35.167Z,37.70
2022-10-23T04:11:37.242Z,37.40
2022-10-23T04:12:39.294Z,38.10
2022-10-23T04:13:41.160Z,33.80
2022-10-23T04:14:43.563Z,39.89
2022-10-23T04:15:50.556Z,39.30
2022-10-23T04:16:52.637Z,38.80
2022-10-23T04:17:55.259Z,36.80
2022-10-23T04:18:57.185Z,41.56
2022-10-23T04:19:59.158Z,39.33
2022-10-23T04:21:01.879Z,40.73
2022-10-23T04:22:03.532Z,41.00
2022-10-23T04:23:05.280Z,41.22
2022-10-23T04:24:09.153Z,44.70
2022-10-23T04:25:11.368Z,41.40
2022-10-23T04:26:13.675Z,36.60
2022-10-23T04:27:15.607Z,39.20
2022-10-23T04:28:18.107Z,38.70
2022-10-23T04:29:21.235Z,39.00
2022-10-23T04:30:23.321Z,35.30
2022-10-23T04:31:25.863Z,41.00
2022-10-23T04:32:28.188Z,33.20
2022-10-23T04:33:30.102Z,34.40
2022-10-23T04:34:31.749Z,43.22
2022-10-23T04:35:33.572Z,25.56
2022-10-23T04:36:35.614Z,42.78
2022-10-23T04:37:39.484Z,35.80
2022-10-23T04:38:41.862Z,35.70
2022-10-23T04:39:43.738Z,37.20
2022-10-23T04:40:47.625Z,36.80
2022-10-23T04:41:52.027Z,36.80
2022-10-23T04:42:55.217Z,40.90
2022-10-23T04:43:58.046Z,39.60
2022-10-23T04:45:00.575Z,37.80
2022-10-23T04:46:03.091Z,39.10
2022-10-23T04:47:05.007Z,38.67
2022-10-23T04:48:08.737Z,38.50
2022-10-23T04:49:15.536Z,38.60
2022-10-23T04:50:37.674Z,31.30
2022-10-23T04:51:44.334Z,46.20
2022-10-23T04:53:04.723Z,38.70
2022-10-23T04:54:25.128Z,38.40
2022-10-23T04:55:31.957Z,22.80
2022-10-23T04:56:47.853Z,40.90
2022-10-23T04:57:52.586Z,37.90
2022-10-23T04:58:56.505Z,44.00
2022-10-23T04:59:59.648Z,39.00
2022-10-23T05:01:01.835Z,37.80
2022-10-23T05:02:04.828Z,38.80
2022-10-23T05:03:07.692Z,43.00
2022-10-23T05:04:11.744Z,38.60
2022-10-23T05:06:25.230Z,40.50
2022-10-23T05:07:46.050Z,38.90
2022-10-23T05:09:06.932Z,42.10
2022-10-23T05:10:22.934Z,34.70
2022-10-23T05:11:38.761Z,36.20
2022-10-23T05:12:42.518Z,41.40
2022-10-23T05:13:44.475Z,39.00
2022-10-23T05:14:46.374Z,35.22
2022-10-23T05:15:51.680Z,38.00
2022-10-23T05:16:57.325Z,38.70
2022-10-23T05:18:02.854Z,37.20
2022-10-23T05:19:09.657Z,35.50
2022-10-23T05:20:19.318Z,33.80
2022-10-23T05:21:24.581Z,36.70
2022-10-23T05:22:29.651Z,37.00
2022-10-23T05:23:34.842Z,40.60
2022-10-23T05:24:38.316Z,36.00
2022-10-23T05:25:40.450Z,39.90
2022-10-23T05:26:53.313Z,38.40
2022-10-23T05:27:55.679Z,32.90
2022-10-23T05:28:57.428Z,39.33
2022-10-23T05:29:59.369Z,41.89
2022-10-23T05:31:04.905Z,35.40
2022-10-23T05:32:11.839Z,41.60
2022-10-23T05:33:14.189Z,34.60
2022-10-23T05:34:21.548Z,44.80
2022-10-23T05:35:24.541Z,36.90
2022-10-23T05:36:27.091Z,41.50
2022-10-23T05:37:31.437Z,37.20
2022-10-23T05:38:45.208Z,43.60
2022-10-23T05:39:49.455Z,38.30
2022-10-23T05:40:53.016Z,44.30
2022-10-23T05:41:56.059Z,38.50
2022-10-23T05:43:00.006Z,30.00
2022-10-23T05:44:04.751Z,39.80
2022-10-23T05:45:25.192Z,38.20
2022-10-23T05:46:45.473Z,44.50
2022-10-23T05:48:05.580Z,37.80
2022-10-23T05:49:04.188Z,46.50
2022-10-23T05:50:27.334Z,38.40
2022-10-23T05:51:31.440Z,36.20
2022-10-23T05:52:38.805Z,42.20
2022-10-23T05:53:59.254Z,41.10
2022-10-23T05:55:07.612Z,47.50
2022-10-23T05:56:16.065Z,40.40
2022-10-23T05:57:20.090Z,43.10
2022-10-23T05:58:23.977Z,42.60
2022-10-23T05:59:33.596Z,40.90
2022-10-23T06:00:41.522Z,47.40
2022-10-23T06:01:46.560Z,44.40
2022-10-23T06:02:51.676Z,42.20
2022-10-23T06:03:59.621Z,42.20
2022-10-23T06:05:04.129Z,37.40
2022-10-23T06:06:17.700Z,44.20
2022-10-23T06:07:28.361Z,26.30
2022-10-23T06:08:32.729Z,46.40
2022-10-23T06:09:34.739Z,39.70
2022-10-23T06:10:36.908Z,38.00
2022-10-23T06:11:40.901Z,40.20
2022-10-23T06:12:45.838Z,36.20
2022-10-23T06:13:50.211Z,33.90
2022-10-23T06:14:54.132Z,41.00
2022-10-23T06:15:56.866Z,40.20
2022-10-23T06:17:00.631Z,42.10
2022-10-23T06:18:04.417Z,37.11
2022-10-23T06:19:12.078Z,44.40
2022-10-23T06:20:16.100Z,33.60
2022-10-23T06:21:19.904Z,44.80
2022-10-23T06:22:24.086Z,46.20
2022-10-23T06:23:31.163Z,39.70
2022-10-23T06:24:36.555Z,36.60
2022-10-23T06:25:40.428Z,45.30
2022-10-23T06:26:45.600Z,43.30
2022-10-23T06:27:54.028Z,36.40
2022-10-23T06:28:56.317Z,32.80
2022-10-23T06:29:58.265Z,41.90
2022-10-23T06:31:05.839Z,42.44
2022-10-23T06:32:08.321Z,41.60
2022-10-23T06:33:10.451Z,42.60
2022-10-23T06:34:12.475Z,43.44
2022-10-23T06:35:15.870Z,42.90
2022-10-23T06:36:19.184Z,41.60
2022-10-23T06:37:21.201Z,39.70
2022-10-23T06:38:34.219Z,39.80
2022-10-23T06:39:38.522Z,41.10
2022-10-23T06:40:56.457Z,45.70
2022-10-23T06:42:00.507Z,40.20
2022-10-23T06:43:21.229Z,43.70
2022-10-23T06:44:34.272Z,43.00
2022-10-23T06:45:38.198Z,33.20
2022-10-23T06:46:51.777Z,42.10
2022-10-23T06:47:55.884Z,39.10
2022-10-23T06:49:03.764Z,39.90
2022-10-23T06:50:13.045Z,38.80
2022-10-23T06:51:15.986Z,45.70
2022-10-23T06:52:41.618Z,43.70
2022-10-23T06:53:23.036Z,44.00
2022-10-23T06:54:27.451Z,46.00
2022-10-23T06:55:32.540Z,43.30
2022-10-23T06:56:35.082Z,44.90
2022-10-23T06:57:39.004Z,47.50
2022-10-23T06:58:41.096Z,44.60
2022-10-23T06:59:46.213Z,38.90
2022-10-23T07:00:48.885Z,38.10
2022-10-23T07:01:52.608Z,48.30
2022-10-23T07:02:55.280Z,46.50
2022-10-23T07:03:57.525Z,39.00
2022-10-23T07:05:01.832Z,42.40
2022-10-23T07:06:05.929Z,46.20
2022-10-23T07:07:08.347Z,45.60
2022-10-23T07:08:13.452Z,45.80
2022-10-23T07:09:17.382Z,44.90
2022-10-23T07:10:28.878Z,42.00
2022-10-23T07:11:36.266Z,42.30
2022-10-23T07:12:38.616Z,32.00
2022-10-23T07:13:42.947Z,45.30
2022-10-23T07:14:46.938Z,38.20
2022-10-23T07:15:51.181Z,47.40
2022-10-23T07:16:55.047Z,43.50
2022-10-23T07:17:57.499Z,42.70
2022-10-23T07:19:01.455Z,40.80
2022-10-23T07:20:04.246Z,40.70
2022-10-23T07:21:06.268Z,29.36
2022-10-23T07:22:09.735Z,43.56
2022-10-23T07:23:32.024Z,49.00
2022-10-23T07:24:34.911Z,44.20
2022-10-23T07:25:37.773Z,41.90
2022-10-23T07:26:41.231Z,43.40
2022-10-23T07:27:44.396Z,38.80
2022-10-23T07:28:49.310Z,40.70
2022-10-23T07:29:53.334Z,44.10
2022-10-23T07:30:58.254Z,44.90
2022-10-23T07:32:02.645Z,39.70
2022-10-23T07:33:17.796Z,34.80
2022-10-23T07:34:32.247Z,35.30
2022-10-23T07:35:45.077Z,41.50
2022-10-23T07:36:50.301Z,45.30
2022-10-23T07:37:53.063Z,43.80
2022-10-23T07:38:55.691Z,35.60
2022-10-23T07:39:57.662Z,43.40
2022-10-23T07:41:01.631Z,39.00
2022-10-23T07:42:04.170Z,46.20
2022-10-23T07:43:08.402Z,46.30
2022-10-23T07:44:11.753Z,37.30
2022-10-23T07:45:13.650Z,45.20
2022-10-23T07:46:17.581Z,39.20
2022-10-23T07:47:19.933Z,49.44
2022-10-23T07:48:24.494Z,40.10
2022-10-23T07:49:31.136Z,43.40
2022-10-23T07:50:33.665Z,41.70
2022-10-23T07:51:35.590Z,43.44
2022-10-23T07:52:37.759Z,42.70
2022-10-23T07:53:44.439Z,42.00
2022-10-23T07:54:50.839Z,47.30
2022-10-23T07:55:58.447Z,40.40
2022-10-23T07:57:03.353Z,46.50
2022-10-23T07:58:10.218Z,37.00
2022-10-23T07:59:14.888Z,48.70
2022-10-23T08:00:19.011Z,45.90
2022-10-23T08:01:32.276Z,47.80
2022-10-23T08:02:35.923Z,45.60
2022-10-23T08:03:38.359Z,41.30
2022-10-23T08:04:40.598Z,49.40
2022-10-23T08:05:52.831Z,42.50
2022-10-23T08:06:56.202Z,48.60
2022-10-23T08:07:59.361Z,42.50
2022-10-23T08:09:06.308Z,47.90
2022-10-23T08:10:09.029Z,46.90
2022-10-23T08:11:14.492Z,46.40
2022-10-23T08:12:18.483Z,33.20
2022-10-23T08:13:22.847Z,41.80
2022-10-23T08:14:27.258Z,45.90
2022-10-23T08:15:31.288Z,46.80
2022-10-23T08:16:37.653Z,45.80
2022-10-23T08:17:45.097Z,34.20
2022-10-23T08:18:50.232Z,49.40
2022-10-23T08:19:53.166Z,47.10
2022-10-23T08:21:00.902Z,47.00
2022-10-23T08:22:03.761Z,43.50
2022-10-23T08:23:06.305Z,43.10
2022-10-23T08:24:10.866Z,50.30
2022-10-23T08:25:13.012Z,48.50
2022-10-23T08:26:15.440Z,48.40
2022-10-23T08:27:17.399Z,46.10
2022-10-23T08:28:21.748Z,48.10
2022-10-23T08:29:25.710Z,48.50
2022-10-23T08:30:28.647Z,50.00
2022-10-23T08:31:32.633Z,45.60
2022-10-23T08:32:45.721Z,47.20
2022-10-23T08:34:52.604Z,42.80
2022-10-23T08:35:57.087Z,48.80
2022-10-23T08:37:01.579Z,47.00
2022-10-23T08:38:05.034Z,46.60
2022-10-23T08:39:10.217Z,39.60
2022-10-23T08:40:19.982Z,48.00
2022-10-23T08:41:43.404Z,45.50
2022-10-23T08:42:53.810Z,42.50
2022-10-23T08:44:00.675Z,36.60
2022-10-23T08:45:08.728Z,40.30
2022-10-23T08:46:17.130Z,42.40
2022-10-23T08:47:47.685Z,35.30
2022-10-23T08:49:14.975Z,42.60
2022-10-23T08:50:32.230Z,44.00
2022-10-23T08:51:43.892Z,44.30
2022-10-23T08:52:55.726Z,44.20
2022-10-23T08:54:04.457Z,43.70
2022-10-23T08:55:21.921Z,40.30
2022-10-23T08:56:39.592Z,44.10
2022-10-23T08:58:02.080Z,45.10
2022-10-23T08:59:23.062Z,41.60
2022-10-23T09:00:25.573Z,46.10
2022-10-23T09:01:34.311Z,43.60
2022-10-23T09:02:40.267Z,46.30
2022-10-23T09:03:43.169Z,38.20
2022-10-23T09:04:49.226Z,45.50
2022-10-23T09:06:07.241Z,49.00
2022-10-23T09:07:35.614Z,45.80
2022-10-23T09:08:56.258Z,45.70
2022-10-23T09:10:07.705Z,43.90
2022-10-23T09:11:16.497Z,38.80
2022-10-23T09:12:24.850Z,39.10
2022-10-23T09:13:39.757Z,40.80
2022-10-23T09:15:00.585Z,41.30
2022-10-23T09:16:18.561Z,45.70
2022-10-23T09:17:38.845Z,30.20
2022-10-23T09:18:42.770Z,42.50
2022-10-23T09:19:45.622Z,46.50
2022-10-23T09:20:47.698Z,43.90
2022-10-23T09:21:49.789Z,41.56
2022-10-23T09:22:58.915Z,33.60
2022-10-23T09:24:01.420Z,39.70
2022-10-23T09:25:10.680Z,38.90
2022-10-23T09:26:15.829Z,37.00
2022-10-23T09:27:17.882Z,46.70
2022-10-23T09:28:26.229Z,57.00
2022-10-23T09:29:34.655Z,64.20
2022-10-23T09:30:39.638Z,42.80
2022-10-23T09:31:56.952Z,77.50
2022-10-23T09:33:00.453Z,30.00
2022-10-23T09:34:02.406Z,62.10
2022-10-23T09:35:05.872Z,44.00
2022-10-23T09:36:15.354Z,77.20
2022-10-23T09:37:25.120Z,27.30
2022-10-23T09:38:33.258Z,55.00
2022-10-23T09:39:37.282Z,36.90
2022-10-23T09:40:42.424Z,53.90
2022-10-23T09:41:44.345Z,43.10
2022-10-23T09:43:05.251Z,57.56
2022-10-23T09:44:16.815Z,61.55
2022-10-23T09:46:43.106Z,34.70
2022-10-23T09:47:45.422Z,36.50
2022-10-23T09:48:51.781Z,48.10
2022-10-23T09:49:56.313Z,53.30
2022-10-23T09:51:01.611Z,47.00
2022-10-23T09:52:13.302Z,44.70
2022-10-23T09:54:32.539Z,38.50
2022-10-23T09:55:34.996Z,39.10
2022-10-23T09:56:40.546Z,40.20
2022-10-23T09:57:44.660Z,37.60
2022-10-23T09:59:02.506Z,33.10
2022-10-23T10:00:08.641Z,35.90
2022-10-23T10:01:31.175Z,34.40
2022-10-23T10:02:36.503Z,40.30
2022-10-23T10:03:46.908Z,39.50
2022-10-23T10:04:49.344Z,32.80
2022-10-23T10:06:00.551Z,36.10
2022-10-23T10:07:05.755Z,35.10
2022-10-23T10:08:26.526Z,42.50
2022-10-23T10:09:30.136Z,35.40
2022-10-23T10:10:38.617Z,35.30
2022-10-23T10:11:47.335Z,40.10
2022-10-23T10:12:53.301Z,39.60
2022-10-23T10:14:08.254Z,34.60
2022-10-23T10:16:33.927Z,31.10
2022-10-23T10:18:00.921Z,27.90
2022-10-23T10:19:26.121Z,28.80
2022-10-23T10:20:40.821Z,28.30
2022-10-23T10:22:02.386Z,29.80
2022-10-23T10:23:20.364Z,23.60
2022-10-23T10:25:39.356Z,34.10
2022-10-23T10:26:51.199Z,23.50
2022-10-23T10:27:56.959Z,34.70
2022-10-23T10:29:02.642Z,27.10
2022-10-23T10:30:18.476Z,31.90
2022-10-23T10:31:30.184Z,30.20
2022-10-23T10:32:41.788Z,30.30
2022-10-23T10:34:00.503Z,26.20
2022-10-23T10:35:06.225Z,27.60
2022-10-23T10:36:15.098Z,20.00
2022-10-23T10:37:35.987Z,28.70
2022-10-23T10:39:00.331Z,26.10
2022-10-23T10:40:06.208Z,28.40
2022-10-23T10:41:33.654Z,27.00
2022-10-23T10:43:05.362Z,28.80
2022-10-23T10:44:27.528Z,31.50
2022-10-23T10:45:45.227Z,36.90
2022-10-23T10:46:56.891Z,28.80
2022-10-23T10:48:19.770Z,28.50
2022-10-23T10:51:35.693Z,28.30
2022-10-23T10:52:59.488Z,32.60
2022-10-23T10:54:17.455Z,31.90
2022-10-23T10:55:35.092Z,28.30
2022-10-23T10:56:40.815Z,36.60
2022-10-23T10:59:30.868Z,33.20
2022-10-23T11:00:33.681Z,29.30
2022-10-23T11:02:03.337Z,25.27
2022-10-23T11:03:26.877Z,27.60
2022-10-23T11:04:35.461Z,29.60
2022-10-23T11:05:43.833Z,27.20
2022-10-23T11:06:49.612Z,33.40
2022-10-23T11:07:58.411Z,25.10
2022-10-23T11:09:19.855Z,32.80
2022-10-23T11:11:30.598Z,21.10
2022-10-23T11:12:32.610Z,32.40
2022-10-23T11:13:38.164Z,31.70
2022-10-23T11:14:42.058Z,28.30
2022-10-23T11:15:44.717Z,36.30
2022-10-23T11:16:53.346Z,31.40
2022-10-23T11:18:01.717Z,37.70
2022-10-23T11:19:11.373Z,32.70
2022-10-23T11:20:28.171Z,27.10
2022-10-23T11:21:39.779Z,30.90
2022-10-23T11:22:51.755Z,21.00
2022-10-23T11:24:19.057Z,25.00
2022-10-23T11:25:44.714Z,21.90
2022-10-23T11:26:56.613Z,25.90
2022-10-23T11:28:20.151Z,26.60
2022-10-23T11:29:38.016Z,29.20
2022-10-23T11:31:00.288Z,32.20
2022-10-23T11:32:05.892Z,26.40
2022-10-23T11:33:30.188Z,27.80
2022-10-23T11:34:56.868Z,22.40
2022-10-23T11:36:14.485Z,18.70
2022-10-23T11:37:18.947Z,26.30
2022-10-23T11:38:27.446Z,21.00
2022-10-23T11:39:32.500Z,25.70
2022-10-23T11:40:38.666Z,25.30
2022-10-23T11:41:50.439Z,16.40
2022-10-23T11:42:52.517Z,20.20
2022-10-23T11:43:59.792Z,21.00
2022-10-23T11:45:02.151Z,24.40
2022-10-23T11:46:27.459Z,17.30
2022-10-23T11:47:40.336Z,24.80
2022-10-23T11:48:44.858Z,21.30
2022-10-23T11:49:46.975Z,25.20
2022-10-23T11:50:51.836Z,24.20
2022-10-23T11:52:05.252Z,21.90
2022-10-23T11:53:15.150Z,19.40
2022-10-23T11:54:18.469Z,19.40
2022-10-23T11:55:26.694Z,19.40
2022-10-23T11:56:28.777Z,19.30
2022-10-23T11:57:32.452Z,21.10
2022-10-23T11:58:47.568Z,15.30
2022-10-23T11:59:53.881Z,21.90
2022-10-23T12:02:23.305Z,18.60
2022-10-23T12:03:31.616Z,13.60
2022-10-23T12:04:44.000Z,23.00
2022-10-23T12:05:47.296Z,21.00
2022-10-23T12:06:53.263Z,15.30
2022-10-23T12:08:02.906Z,16.50
2022-10-23T12:09:20.570Z,13.40
2022-10-23T12:10:34.754Z,15.00
2022-10-23T12:11:43.297Z,19.70
2022-10-23T12:12:57.543Z,13.40
2022-10-23T12:13:59.604Z,16.60
2022-10-23T12:15:14.870Z,15.40
2022-10-23T12:16:17.266Z,18.20
2022-10-23T12:17:26.411Z,12.70
2022-10-23T12:18:28.571Z,14.20
2022-10-23T12:19:34.202Z,13.20
2022-10-23T12:20:46.239Z,14.40
2022-10-23T12:21:51.069Z,13.80
2022-10-23T12:22:59.887Z,14.20
2022-10-23T12:24:25.326Z,14.30
2022-10-23T12:25:40.143Z,12.60
2022-10-23T12:26:46.893Z,10.90
2022-10-23T12:28:15.172Z,13.60
2022-10-23T12:29:20.923Z,11.20
2022-10-23T12:30:26.603Z,11.10
2022-10-23T12:31:47.067Z,9.00
2022-10-23T12:33:14.687Z,12.40
2022-10-23T12:35:43.539Z,12.20
2022-10-23T12:36:58.758Z,7.50
2022-10-23T12:38:04.469Z,9.10
2022-10-23T12:39:30.321Z,10.40
2022-10-23T12:40:32.602Z,10.90
2022-10-23T12:41:37.939Z,8.30
2022-10-23T12:42:40.861Z,10.60
2022-10-23T12:43:46.677Z,9.20
2022-10-23T12:44:57.926Z,8.40
2022-10-23T12:47:18.402Z,8.50
2022-10-23T12:48:23.189Z,9.10
2022-10-23T12:49:28.118Z,9.30
2022-10-23T12:50:32.886Z,11.40
2022-10-23T12:51:35.554Z,8.80
2022-10-23T12:52:37.370Z,8.90
2022-10-23T12:53:39.388Z,9.89
2022-10-23T12:54:41.915Z,8.44
2022-10-23T12:57:15.730Z,10.40
2022-10-23T12:58:24.068Z,7.80
2022-10-23T12:59:38.289Z,12.50
2022-10-23T13:00:44.621Z,5.70
2022-10-23T13:01:50.428Z,8.80
2022-10-23T13:03:02.743Z,6.80
2022-10-23T13:04:11.436Z,9.10
2022-10-23T13:05:17.608Z,11.10
2022-10-23T13:06:20.346Z,8.70
2022-10-23T13:07:35.527Z,8.09
2022-10-23T13:08:46.673Z,7.70
2022-10-23T13:09:51.122Z,5.80
2022-10-23T13:10:55.397Z,8.40
2022-10-23T13:11:59.466Z,9.50
2022-10-23T13:13:05.217Z,8.90
2022-10-23T13:14:12.361Z,6.90
2022-10-23T13:15:18.879Z,7.30
2022-10-23T13:16:23.794Z,9.00
2022-10-23T13:17:39.773Z,10.00
2022-10-23T13:18:41.926Z,7.70
2022-10-23T13:19:44.135Z,8.89
2022-10-23T13:20:57.024Z,7.90
2022-10-23T13:22:01.280Z,8.60
2022-10-23T13:23:31.157Z,9.10
2022-10-23T13:24:33.614Z,7.60
2022-10-23T13:25:37.947Z,8.70
2022-10-23T13:26:41.217Z,9.50
2022-10-23T13:27:44.214Z,12.40
2022-10-23T13:28:47.298Z,8.90
2022-10-23T13:29:49.382Z,6.45
2022-10-23T13:32:15.146Z,6.00
2022-10-23T13:33:25.120Z,8.60
2022-10-23T13:34:29.898Z,10.00
2022-10-23T13:35:33.330Z,9.80
2022-10-23T13:36:36.919Z,7.70
2022-10-23T13:37:40.468Z,9.40
2022-10-23T13:38:50.050Z,7.91
2022-10-23T13:40:06.685Z,6.50
2022-10-23T13:41:12.071Z,8.50
2022-10-23T13:42:14.459Z,9.10
2022-10-23T13:43:17.062Z,6.90
2022-10-23T13:44:23.776Z,6.70
2022-10-23T13:45:27.048Z,8.20
2022-10-23T13:46:29.240Z,9.10
2022-10-23T13:47:32.152Z,9.80
2022-10-23T13:48:35.256Z,9.45
2022-10-23T13:49:38.426Z,11.60
2022-10-23T13:50:40.888Z,10.00
2022-10-23T13:51:49.535Z,9.10
2022-10-23T13:52:52.431Z,9.10
2022-10-23T13:53:55.788Z,10.40
2022-10-23T13:54:58.194Z,8.70
2022-10-23T13:56:00.850Z,9.60
2022-10-23T13:57:02.694Z,3.10
2022-10-23T13:58:04.615Z,7.78
2022-10-23T13:59:08.449Z,8.40
2022-10-23T14:00:11.920Z,7.60
2022-10-23T14:01:29.586Z,9.18
2022-10-23T14:02:31.763Z,9.50
2022-10-23T14:03:33.661Z,7.80
2022-10-23T14:04:36.138Z,7.67
2022-10-23T14:05:39.003Z,6.50
2022-10-23T14:06:41.725Z,10.50
2022-10-23T14:07:43.726Z,7.80
2022-10-23T14:08:46.254Z,6.00
2022-10-23T14:09:50.579Z,13.20
2022-10-23T14:10:52.780Z,9.40
2022-10-23T14:11:54.714Z,9.90
2022-10-23T14:12:57.527Z,15.78
2022-10-23T14:13:59.487Z,10.82
2022-10-23T14:15:02.362Z,8.40
2022-10-23T14:16:05.561Z,15.70
2022-10-23T14:18:27.983Z,10.00
2022-10-23T14:19:29.804Z,10.00
2022-10-23T14:20:34.535Z,6.56
2022-10-23T14:21:36.568Z,12.70
2022-10-23T14:22:39.569Z,12.80
2022-10-23T14:23:41.559Z,14.82
2022-10-23T14:24:43.921Z,16.90
2022-10-23T14:25:45.808Z,11.90
2022-10-23T14:26:47.783Z,17.78
2022-10-23T14:27:49.834Z,16.60
2022-10-23T14:28:53.190Z,19.50
2022-10-23T14:29:55.974Z,14.80
2022-10-23T14:30:59.781Z,18.30
2022-10-23T14:32:01.919Z,11.10
2022-10-23T14:33:04.242Z,11.40
2022-10-23T14:34:06.214Z,12.70
2022-10-23T14:35:09.331Z,7.60
2022-10-23T14:36:12.631Z,8.70
2022-10-23T14:37:14.875Z,12.50
2022-10-23T14:38:16.883Z,16.60
2022-10-23T14:39:19.841Z,19.56
2022-10-23T14:40:23.140Z,13.40
2022-10-23T14:41:26.938Z,11.40
2022-10-23T14:42:33.721Z,13.10
2022-10-23T14:43:32.581Z,11.80
2022-10-23T14:44:34.643Z,9.10
2022-10-23T14:45:36.515Z,13.30
2022-10-23T14:46:38.635Z,8.56
2022-10-23T14:47:40.760Z,11.90
2022-10-23T14:48:47.035Z,8.40
2022-10-23T14:49:51.766Z,6.30
2022-10-23T14:50:54.941Z,10.90
2022-10-23T14:51:57.528Z,9.90
2022-10-23T14:54:04.820Z,11.11
2022-10-23T14:55:07.807Z,14.20